To NAV CANADA Home Page Login to a new session Search on AWWS site Feedback and Comments Disclaimer Vers la page française équivalente Tips FAQ What's new on the site To the Forecasts and Observations / NOTAM section To "File a Flight Plan" website Publications and other links Update of the User's profile FIC Telephone Numbers My Weather Data Folder Route Weather Data Regional Weather Data Local Weather Data To the Forecasts and Observations / NOTAM section
Request Generated 02/07/2016 at 01:03:08 UTC . Weather information available at that time is displayed.

METAR/TAF

OLD CROW/YT    

LWIS CYOC 070000Z AUTO 00000KT M24/M27 A3001=
LWIS CYOC 062300Z AUTO 27003KT M24/M27 A3000=
LWIS CYOC 062200Z AUTO VRB02KT M24/M27 A2997=

TAF AMD CYOC 070006Z 0700/0702 FCST CNCLD DUE NO OBS
RMK NXT FCST WILL BE ISSUED AT 071545Z=
Your time UTC time
Weather data provided by Environment Canada and NAV CANADA